Calgary Springbank Airport
CYBW : now visible

Airfield :











YOU CAN JOIN US ON...

 
LOGIN :

Register | Disclaimer

   EN    FR    IT 

 









Legend :    VFR   Marginal VFR   IFR   Intensive IFR   Very Intensive IFR
Visi :
Ceiling :
>= 8 km
>= 3000ft
5 to 8 km
1000 to 3000 ft
1500m to 5 km
500 to 1000 ft
800 to 1500m
200 to 500 ft
< 800m
< 200 ft
Symbols :   Thunderstorms  Fog  Heavy snow  Heavy precipitations  Wind > 20 kt






- Airport Elevation : 3937 ft
- IATA code : YBW


CYBW - Calgary Springbank

CURRENT METAR :
  • 082000Z AUTO 27012KT 9SM OVC230 18/06 A2987 RMK SLP112 DENSITY ALT 5200FT

EXPIRED METARs :
  • 081900Z AUTO 26015G20KT 9SM BKN230 18/06 A2988 RMK SLP117 DENSITY ALT 5200FT
  • 081800Z AUTO 24010G19KT 9SM CLR 18/07 A2989 RMK SLP119 DENSITY ALT 5100FT

TAF TAF CYBW
Valid from the 08 at 18:00 until the 09 at 04:00 UTC


081738Z 0818/0904 27012KT P6SM SCT130 BKN220
FM082000 27012KT P6SM SCT080
TEMPO 0821/0824 P6SM -SHRA VCTS BKN080CB
FM090200 33006KT P6SM SKC RMK FCST BASED ON AUTO OBS. NXT FCST BY 090000Z
CZEG FIR / North America



MET'MAP, your aeronautical weather chart ! - Copyright ORBIFLY December 2007 - Disclaimer

ORBIFLY MET'MAP TEAM :

Programming & Development : Alexandra Zaïnal
Concept & original design : Baudouin d'Aumeries
Assistance for programming : Marc-Olivier Méhu
Technical & hardware support : Manuel Goepfert

Contact : metmap@orbifly.com




SOURCES & CREDITS :

   NOAA       Earth
Advisory